Terminal Aerodrome Forecast
Issued by NWS Lake Charles, LA

Home | Current Version | Previous Version | Text Only | Print | Product List | Glossary On
Versions: 1 2 3 4 5 6 7 8 9 10 11 12 13 14 15 16 17 18 19
000
FTUS44 KLCH 201400 AAA
TAFLCH
TAF AMD
KLCH 201435Z 2015/2112 VRB03KT P6SM FEW025
     FM201600 18008KT P6SM VCSH SCT030 SCT200
     FM201800 18006KT P6SM VCTS SCT030CB SCT200
      TEMPO 2018/2022 VRB15G20KT 3SM -TSRA BKN025CB
     FM202300 18004KT P6SM SCT250=

USA.gov is the U.S. government's official web portal to all federal, state and local government web resources and services.